BAW843 EPWA-EGLL
Flight info
| Callsign | BAW843 |
|---|---|
| Flight time | 1h 51m |
| Altitude | 50000 |
| Route | OLILA DCT SOMOR DCT RATOR DCT BIKRU DCT TUSKA DCT SUTEB DCT XIPTI DCT BUKUT DCT BARMI |
| Aircraft | CONC/H-SDFHIRW/X |
Departure
| Time | 2026-05-05 16:18 |
|---|---|
| Airport | Warsaw Chopin Airport (EPWA) |
Arrival
| Time | 2026-05-05 18:09 |
|---|---|
| Airport | London Heathrow Airport (EGLL) |
| Time | Latitude | Longitude | Altitude | Speed | Heading |
|---|---|---|---|---|---|
| 2026-05-05 15:34 | 52.17741 | 20.96248 | 339 ft | 0 kts | 62° |
| 2026-05-05 16:11 | 52.17754 | 20.96288 | 339 ft | 7 kts | 61° |
| 2026-05-05 16:11 | 52.17801 | 20.96045 | 343 ft | 10 kts | 294° |
| 2026-05-05 16:12 | 52.17851 | 20.95903 | 346 ft | 15 kts | 302° |
| 2026-05-05 16:12 | 52.17890 | 20.95777 | 349 ft | 0 kts | 281° |
| 2026-05-05 16:13 | 52.17891 | 20.95766 | 349 ft | 4 kts | 274° |
| 2026-05-05 16:14 | 52.17805 | 20.95636 | 351 ft | 8 kts | 158° |
| 2026-05-05 16:14 | 52.17787 | 20.95651 | 350 ft | 0 kts | 151° |
| 2026-05-05 16:16 | 52.17545 | 20.95861 | 346 ft | 81 kts | 152° |
| 2026-05-05 16:17 | 52.15440 | 20.97710 | 499 ft | 241 kts | 153° |
| 2026-05-05 16:17 | 52.13910 | 20.99094 | 777 ft | 254 kts | 152° |
| 2026-05-05 16:18 | 52.11133 | 21.02619 | 2153 ft | 272 kts | 113° |
| 2026-05-05 16:18 | 52.10700 | 21.05629 | 3292 ft | 280 kts | 101° |
| 2026-05-05 16:18 | 52.10075 | 21.11809 | 5340 ft | 290 kts | 96° |
| 2026-05-05 16:19 | 52.10370 | 21.15037 | 6333 ft | 299 kts | 60° |
| 2026-05-05 16:19 | 52.11674 | 21.17536 | 7525 ft | 296 kts | 27° |
| 2026-05-05 16:19 | 52.15582 | 21.19352 | 9459 ft | 313 kts | 10° |
| 2026-05-05 16:20 | 52.19938 | 21.19414 | 10843 ft | 313 kts | 335° |
| 2026-05-05 16:20 | 52.23494 | 21.15551 | 12487 ft | 327 kts | 312° |
| 2026-05-05 16:21 | 52.26955 | 21.09963 | 13971 ft | 381 kts | 309° |
| 2026-05-05 16:22 | 52.32920 | 20.99603 | 15784 ft | 465 kts | 310° |
| 2026-05-05 16:22 | 52.37538 | 20.91488 | 17031 ft | 505 kts | 310° |
| 2026-05-05 16:23 | 52.42280 | 20.83124 | 17946 ft | 506 kts | 310° |
| 2026-05-05 16:23 | 52.44640 | 20.78956 | 18414 ft | 508 kts | 310° |
| 2026-05-05 16:23 | 52.49268 | 20.70742 | 20151 ft | 517 kts | 310° |
| 2026-05-05 16:24 | 52.51660 | 20.66492 | 21114 ft | 524 kts | 311° |
| 2026-05-05 16:24 | 52.54094 | 20.62158 | 22111 ft | 531 kts | 311° |
| 2026-05-05 16:24 | 52.59014 | 20.53373 | 24076 ft | 543 kts | 311° |
| 2026-05-05 16:25 | 52.61597 | 20.48757 | 25119 ft | 550 kts | 310° |
| 2026-05-05 16:25 | 52.66747 | 20.39512 | 27150 ft | 560 kts | 310° |
| 2026-05-05 16:25 | 52.69372 | 20.34790 | 28265 ft | 561 kts | 310° |
| 2026-05-05 16:26 | 52.79666 | 20.16410 | 27847 ft | 553 kts | 309° |
| 2026-05-05 16:27 | 52.82196 | 20.11708 | 27880 ft | 550 kts | 309° |
| 2026-05-05 16:27 | 52.84714 | 20.07018 | 28030 ft | 552 kts | 309° |
| 2026-05-05 16:27 | 52.89733 | 19.97623 | 28096 ft | 559 kts | 309° |
| 2026-05-05 16:28 | 52.94653 | 19.88377 | 27980 ft | 560 kts | 308° |
| 2026-05-05 16:28 | 52.97260 | 19.83465 | 27994 ft | 559 kts | 308° |
| 2026-05-05 16:28 | 52.99815 | 19.78648 | 28002 ft | 559 kts | 308° |
| 2026-05-05 16:29 | 53.02398 | 19.73757 | 27990 ft | 560 kts | 308° |
| 2026-05-05 16:29 | 53.04964 | 19.68889 | 28026 ft | 560 kts | 308° |
| 2026-05-05 16:29 | 53.10102 | 19.59118 | 28005 ft | 560 kts | 308° |
| 2026-05-05 16:30 | 53.12665 | 19.54237 | 27992 ft | 559 kts | 308° |
| 2026-05-05 16:30 | 53.15189 | 19.49412 | 27997 ft | 559 kts | 308° |
| 2026-05-05 16:30 | 53.17749 | 19.44512 | 28000 ft | 559 kts | 308° |
| 2026-05-05 16:30 | 53.20302 | 19.39619 | 28017 ft | 559 kts | 308° |
| 2026-05-05 16:31 | 53.25370 | 19.29827 | 28031 ft | 557 kts | 307° |
| 2026-05-05 16:31 | 53.30426 | 19.19998 | 28021 ft | 558 kts | 307° |
| 2026-05-05 16:32 | 53.35426 | 19.10242 | 28027 ft | 556 kts | 307° |
| 2026-05-05 16:32 | 53.40438 | 19.00413 | 28026 ft | 556 kts | 307° |
| 2026-05-05 16:33 | 53.45424 | 18.90603 | 28032 ft | 555 kts | 307° |
| 2026-05-05 16:33 | 53.50431 | 18.80711 | 28038 ft | 555 kts | 307° |
| 2026-05-05 16:34 | 53.55399 | 18.70857 | 28031 ft | 555 kts | 307° |
| 2026-05-05 16:34 | 53.60390 | 18.60917 | 28030 ft | 556 kts | 306° |
| 2026-05-05 16:35 | 53.65348 | 18.51003 | 28029 ft | 555 kts | 306° |
| 2026-05-05 16:35 | 53.70224 | 18.41216 | 28039 ft | 555 kts | 306° |
| 2026-05-05 16:36 | 53.75053 | 18.31480 | 28047 ft | 554 kts | 306° |
| 2026-05-05 16:36 | 53.79986 | 18.21498 | 28046 ft | 554 kts | 306° |
| 2026-05-05 16:37 | 53.84901 | 18.11509 | 28044 ft | 553 kts | 306° |
| 2026-05-05 16:37 | 53.89818 | 18.01488 | 28057 ft | 552 kts | 305° |
| 2026-05-05 16:38 | 53.94691 | 17.91504 | 28066 ft | 552 kts | 305° |
| 2026-05-05 16:38 | 53.96843 | 17.86171 | 28092 ft | 543 kts | 292° |
| 2026-05-05 16:38 | 53.98462 | 17.80371 | 28152 ft | 543 kts | 292° |
| 2026-05-05 16:39 | 54.00085 | 17.74585 | 28042 ft | 543 kts | 292° |
| 2026-05-05 16:39 | 54.01694 | 17.68802 | 28061 ft | 541 kts | 292° |
| 2026-05-05 16:39 | 54.04893 | 17.57211 | 28058 ft | 542 kts | 291° |
| 2026-05-05 16:40 | 54.08076 | 17.45589 | 28057 ft | 541 kts | 292° |
| 2026-05-05 16:40 | 54.11239 | 17.33984 | 28049 ft | 542 kts | 291° |
| 2026-05-05 16:41 | 54.14376 | 17.22417 | 28052 ft | 541 kts | 291° |
| 2026-05-05 16:41 | 54.17517 | 17.10768 | 28048 ft | 541 kts | 291° |
| 2026-05-05 16:42 | 54.20658 | 16.99066 | 28056 ft | 540 kts | 291° |
| 2026-05-05 16:42 | 54.23759 | 16.87452 | 28056 ft | 539 kts | 291° |
| 2026-05-05 16:43 | 54.26852 | 16.75806 | 28060 ft | 541 kts | 291° |
| 2026-05-05 16:43 | 54.29939 | 16.64122 | 28057 ft | 540 kts | 291° |
| 2026-05-05 16:44 | 54.33026 | 16.52381 | 28052 ft | 540 kts | 291° |
| 2026-05-05 16:44 | 54.36092 | 16.40659 | 28060 ft | 540 kts | 291° |
| 2026-05-05 16:45 | 54.39145 | 16.28919 | 28070 ft | 539 kts | 290° |
| 2026-05-05 16:45 | 54.42195 | 16.17139 | 28062 ft | 539 kts | 290° |
| 2026-05-05 16:46 | 54.45229 | 16.05356 | 28054 ft | 541 kts | 290° |
| 2026-05-05 16:46 | 54.48244 | 15.93580 | 28063 ft | 540 kts | 290° |
| 2026-05-05 16:47 | 54.51267 | 15.81724 | 28075 ft | 542 kts | 290° |
| 2026-05-05 16:47 | 54.54285 | 15.69812 | 28044 ft | 542 kts | 290° |
| 2026-05-05 16:48 | 54.57283 | 15.57917 | 28074 ft | 543 kts | 290° |
| 2026-05-05 16:48 | 54.60267 | 15.46012 | 28057 ft | 542 kts | 290° |
| 2026-05-05 16:49 | 54.63232 | 15.34124 | 28065 ft | 542 kts | 290° |
| 2026-05-05 16:49 | 54.66175 | 15.22252 | 28074 ft | 542 kts | 290° |
| 2026-05-05 16:50 | 54.69122 | 15.10315 | 28069 ft | 542 kts | 289° |
| 2026-05-05 16:50 | 54.72062 | 14.98324 | 28075 ft | 541 kts | 290° |
| 2026-05-05 16:51 | 54.74982 | 14.86356 | 28077 ft | 541 kts | 290° |
| 2026-05-05 16:51 | 54.77900 | 14.74337 | 28068 ft | 541 kts | 290° |
| 2026-05-05 16:52 | 54.80793 | 14.62347 | 28071 ft | 542 kts | 290° |
| 2026-05-05 16:52 | 54.83681 | 14.50317 | 28070 ft | 542 kts | 290° |
| 2026-05-05 16:53 | 54.86561 | 14.38246 | 28071 ft | 541 kts | 290° |
| 2026-05-05 16:53 | 54.89416 | 14.26214 | 28080 ft | 540 kts | 289° |
| 2026-05-05 16:54 | 54.91653 | 14.13914 | 28142 ft | 534 kts | 273° |
| 2026-05-05 16:54 | 54.92232 | 14.01062 | 28031 ft | 534 kts | 272° |
| 2026-05-05 16:55 | 54.92739 | 13.88215 | 28066 ft | 534 kts | 272° |
| 2026-05-05 16:55 | 54.93210 | 13.75412 | 28079 ft | 533 kts | 272° |
| 2026-05-05 16:56 | 54.93663 | 13.62595 | 28075 ft | 534 kts | 272° |
| 2026-05-05 16:56 | 54.94105 | 13.49661 | 28075 ft | 534 kts | 272° |
| 2026-05-05 16:57 | 54.94531 | 13.36814 | 28077 ft | 534 kts | 272° |
| 2026-05-05 16:57 | 54.94940 | 13.23945 | 28080 ft | 534 kts | 271° |
| 2026-05-05 16:58 | 54.95340 | 13.11055 | 28078 ft | 534 kts | 271° |
| 2026-05-05 16:58 | 54.95724 | 12.98183 | 28077 ft | 535 kts | 271° |
| 2026-05-05 16:59 | 54.96097 | 12.85263 | 28080 ft | 536 kts | 272° |
| 2026-05-05 16:59 | 54.96456 | 12.72374 | 28080 ft | 536 kts | 271° |
| 2026-05-05 17:00 | 54.96802 | 12.59407 | 28082 ft | 535 kts | 271° |
| 2026-05-05 17:00 | 54.97132 | 12.46526 | 28074 ft | 536 kts | 271° |
| 2026-05-05 17:01 | 54.97449 | 12.33579 | 28073 ft | 535 kts | 271° |
| 2026-05-05 17:01 | 54.97753 | 12.20666 | 28083 ft | 534 kts | 271° |
| 2026-05-05 17:02 | 54.98042 | 12.07798 | 28077 ft | 535 kts | 271° |
| 2026-05-05 17:02 | 54.98318 | 11.94892 | 28073 ft | 536 kts | 271° |
| 2026-05-05 17:03 | 54.98580 | 11.81931 | 28077 ft | 535 kts | 271° |
| 2026-05-05 17:03 | 54.98829 | 11.69086 | 28088 ft | 536 kts | 271° |
| 2026-05-05 17:04 | 54.99064 | 11.56099 | 28088 ft | 536 kts | 271° |
| 2026-05-05 17:04 | 54.99284 | 11.43186 | 28079 ft | 536 kts | 271° |
| 2026-05-05 17:05 | 54.99492 | 11.30302 | 28099 ft | 536 kts | 270° |
| 2026-05-05 17:05 | 54.99688 | 11.17289 | 28095 ft | 536 kts | 270° |
| 2026-05-05 17:06 | 54.99867 | 11.04440 | 28098 ft | 536 kts | 270° |
| 2026-05-05 17:06 | 55.00035 | 10.91424 | 28099 ft | 536 kts | 270° |
| 2026-05-05 17:07 | 55.00187 | 10.78486 | 28100 ft | 537 kts | 270° |
| 2026-05-05 17:07 | 55.00326 | 10.65520 | 28102 ft | 537 kts | 270° |
| 2026-05-05 17:08 | 55.00452 | 10.52594 | 28105 ft | 537 kts | 270° |
| 2026-05-05 17:08 | 55.00564 | 10.39619 | 28100 ft | 537 kts | 270° |
| 2026-05-05 17:09 | 55.00661 | 10.26615 | 28107 ft | 538 kts | 269° |
| 2026-05-05 17:09 | 55.00746 | 10.13596 | 28106 ft | 539 kts | 269° |
| 2026-05-05 17:10 | 55.00817 | 10.00577 | 28105 ft | 540 kts | 269° |
| 2026-05-05 17:10 | 55.00874 | 9.87545 | 28108 ft | 540 kts | 269° |
| 2026-05-05 17:11 | 55.00918 | 9.74457 | 28107 ft | 540 kts | 269° |
| 2026-05-05 17:11 | 55.00946 | 9.61462 | 28103 ft | 539 kts | 269° |
| 2026-05-05 17:12 | 55.00962 | 9.48409 | 28106 ft | 540 kts | 269° |
| 2026-05-05 17:12 | 55.00962 | 9.35325 | 28103 ft | 540 kts | 269° |
| 2026-05-05 17:13 | 55.00949 | 9.22300 | 28107 ft | 540 kts | 268° |
| 2026-05-05 17:13 | 55.00922 | 9.09271 | 28106 ft | 542 kts | 268° |
| 2026-05-05 17:14 | 55.00882 | 8.96164 | 28104 ft | 542 kts | 268° |
| 2026-05-05 17:14 | 55.00825 | 8.83004 | 28097 ft | 543 kts | 268° |
| 2026-05-05 17:15 | 55.00756 | 8.69897 | 28102 ft | 543 kts | 268° |
| 2026-05-05 17:15 | 55.00673 | 8.56814 | 28106 ft | 543 kts | 268° |
| 2026-05-05 17:16 | 55.00576 | 8.43677 | 28108 ft | 544 kts | 268° |
| 2026-05-05 17:16 | 55.00464 | 8.30537 | 28125 ft | 543 kts | 268° |
| 2026-05-05 17:17 | 55.00402 | 8.23954 | 28247 ft | 557 kts | 268° |
| 2026-05-05 17:17 | 55.00332 | 8.17041 | 28494 ft | 591 kts | 268° |
| 2026-05-05 17:17 | 55.00261 | 8.09936 | 30600 ft | 591 kts | 268° |
| 2026-05-05 17:17 | 55.00184 | 8.02935 | 33089 ft | 586 kts | 268° |
| 2026-05-05 17:18 | 55.00100 | 7.95989 | 35013 ft | 589 kts | 268° |
| 2026-05-05 17:18 | 55.00012 | 7.88790 | 35587 ft | 610 kts | 268° |
| 2026-05-05 17:18 | 55.00050 | 7.81229 | 35656 ft | 637 kts | 270° |
| 2026-05-05 17:18 | 55.00129 | 7.73343 | 35895 ft | 658 kts | 270° |
| 2026-05-05 17:19 | 55.00201 | 7.65394 | 36474 ft | 677 kts | 270° |
| 2026-05-05 17:19 | 55.00267 | 7.57036 | 36865 ft | 703 kts | 270° |
| 2026-05-05 17:19 | 55.00331 | 7.48473 | 37962 ft | 719 kts | 270° |
| 2026-05-05 17:19 | 55.00388 | 7.39707 | 38411 ft | 747 kts | 270° |
| 2026-05-05 17:20 | 55.00440 | 7.30530 | 38804 ft | 769 kts | 269° |
| 2026-05-05 17:20 | 55.00487 | 7.21197 | 39678 ft | 787 kts | 269° |
| 2026-05-05 17:20 | 55.00528 | 7.11444 | 39473 ft | 819 kts | 269° |
| 2026-05-05 17:20 | 55.00563 | 7.01429 | 38640 ft | 847 kts | 269° |
| 2026-05-05 17:21 | 55.00589 | 6.91163 | 37876 ft | 864 kts | 269° |
| 2026-05-05 17:21 | 55.00608 | 6.80734 | 37450 ft | 874 kts | 269° |
| 2026-05-05 17:21 | 55.00617 | 6.70107 | 37750 ft | 875 kts | 269° |
| 2026-05-05 17:22 | 55.00608 | 6.50397 | 44228 ft | 809 kts | 270° |
| 2026-05-05 17:22 | 55.00591 | 6.40824 | 46338 ft | 792 kts | 270° |
| 2026-05-05 17:22 | 55.00571 | 6.31241 | 46936 ft | 787 kts | 269° |
| 2026-05-05 17:22 | 55.00542 | 6.21747 | 46817 ft | 790 kts | 269° |
| 2026-05-05 17:23 | 55.00506 | 6.12311 | 46590 ft | 792 kts | 269° |
| 2026-05-05 17:23 | 55.00462 | 6.02755 | 46423 ft | 795 kts | 269° |
| 2026-05-05 17:23 | 55.00409 | 5.93141 | 45984 ft | 803 kts | 269° |
| 2026-05-05 17:23 | 55.00348 | 5.83399 | 45487 ft | 810 kts | 269° |
| 2026-05-05 17:24 | 55.00280 | 5.73712 | 45202 ft | 815 kts | 269° |
| 2026-05-05 17:24 | 55.00102 | 5.53903 | 45265 ft | 821 kts | 269° |
| 2026-05-05 17:25 | 54.98442 | 5.34524 | 45337 ft | 819 kts | 252° |
| 2026-05-05 17:25 | 54.97240 | 5.28137 | 45444 ft | 828 kts | 251° |
| 2026-05-05 17:25 | 54.94804 | 5.15432 | 45534 ft | 853 kts | 251° |
| 2026-05-05 17:25 | 54.92816 | 5.05767 | 45644 ft | 871 kts | 245° |
| 2026-05-05 17:26 | 54.89914 | 4.96567 | 45804 ft | 887 kts | 234° |
| 2026-05-05 17:26 | 54.86019 | 4.88259 | 46051 ft | 908 kts | 226° |
| 2026-05-05 17:26 | 54.81264 | 4.80937 | 46224 ft | 933 kts | 216° |
| 2026-05-05 17:26 | 54.75692 | 4.75020 | 46473 ft | 963 kts | 208° |
| 2026-05-05 17:27 | 54.69739 | 4.69477 | 46919 ft | 999 kts | 211° |
| 2026-05-05 17:27 | 54.63953 | 4.63607 | 47252 ft | 1022 kts | 212° |
| 2026-05-05 17:27 | 54.57792 | 4.57316 | 47433 ft | 1046 kts | 212° |
| 2026-05-05 17:27 | 54.51426 | 4.50814 | 47608 ft | 1070 kts | 212° |
| 2026-05-05 17:28 | 54.45087 | 4.44355 | 47791 ft | 1095 kts | 212° |
| 2026-05-05 17:28 | 54.38485 | 4.37653 | 48038 ft | 1120 kts | 212° |
| 2026-05-05 17:28 | 54.31811 | 4.30902 | 50162 ft | 1121 kts | 211° |
| 2026-05-05 17:28 | 54.25127 | 4.24164 | 51598 ft | 1137 kts | 211° |
| 2026-05-05 17:29 | 54.18369 | 4.17381 | 51253 ft | 1126 kts | 211° |
| 2026-05-05 17:29 | 54.11743 | 4.10755 | 50856 ft | 1118 kts | 211° |
| 2026-05-05 17:29 | 54.05174 | 4.04209 | 50631 ft | 1123 kts | 211° |
| 2026-05-05 17:29 | 53.98402 | 3.97484 | 50485 ft | 1147 kts | 211° |
| 2026-05-05 17:30 | 53.91660 | 3.90816 | 50314 ft | 1156 kts | 211° |
| 2026-05-05 17:30 | 53.84877 | 3.84135 | 50125 ft | 1154 kts | 211° |
| 2026-05-05 17:30 | 53.78013 | 3.77396 | 50064 ft | 1151 kts | 211° |
| 2026-05-05 17:30 | 53.71173 | 3.70709 | 50203 ft | 1153 kts | 211° |
| 2026-05-05 17:31 | 53.64225 | 3.63941 | 50104 ft | 1152 kts | 211° |
| 2026-05-05 17:31 | 53.50392 | 3.50545 | 50170 ft | 1154 kts | 211° |
| 2026-05-05 17:32 | 53.36550 | 3.37242 | 50143 ft | 1153 kts | 211° |
| 2026-05-05 17:32 | 53.22774 | 3.24102 | 50120 ft | 1154 kts | 210° |
| 2026-05-05 17:33 | 53.08895 | 3.11225 | 50145 ft | 1156 kts | 209° |
| 2026-05-05 17:33 | 52.94954 | 2.98700 | 50136 ft | 1156 kts | 209° |
| 2026-05-05 17:34 | 52.81189 | 2.86430 | 50127 ft | 1155 kts | 209° |
| 2026-05-05 17:34 | 52.67164 | 2.74020 | 50123 ft | 1154 kts | 209° |
| 2026-05-05 17:34 | 52.60144 | 2.67844 | 49888 ft | 1154 kts | 209° |
| 2026-05-05 17:35 | 52.53175 | 2.61733 | 48438 ft | 1132 kts | 209° |
| 2026-05-05 17:35 | 52.46463 | 2.55902 | 46827 ft | 1053 kts | 207° |
| 2026-05-05 17:35 | 52.40141 | 2.50803 | 45373 ft | 1010 kts | 207° |
| 2026-05-05 17:35 | 52.34144 | 2.45945 | 44075 ft | 991 kts | 207° |
| 2026-05-05 17:36 | 52.28054 | 2.41019 | 42775 ft | 977 kts | 207° |
| 2026-05-05 17:36 | 52.22243 | 2.36335 | 41448 ft | 871 kts | 207° |
| 2026-05-05 17:36 | 52.17315 | 2.32378 | 39997 ft | 743 kts | 206° |
| 2026-05-05 17:36 | 52.12911 | 2.28696 | 38432 ft | 701 kts | 212° |
| 2026-05-05 17:37 | 52.09227 | 2.24025 | 36757 ft | 644 kts | 225° |
| 2026-05-05 17:37 | 52.06506 | 2.19204 | 35717 ft | 543 kts | 226° |
| 2026-05-05 17:37 | 52.04066 | 2.14800 | 34812 ft | 520 kts | 227° |
| 2026-05-05 17:37 | 52.01720 | 2.10514 | 33308 ft | 511 kts | 227° |
| 2026-05-05 17:38 | 51.99538 | 2.06505 | 31721 ft | 500 kts | 227° |
| 2026-05-05 17:38 | 51.97316 | 2.02425 | 30115 ft | 495 kts | 227° |
| 2026-05-05 17:38 | 51.95085 | 1.98336 | 28727 ft | 492 kts | 227° |
| 2026-05-05 17:38 | 51.92913 | 1.94351 | 28244 ft | 492 kts | 227° |
| 2026-05-05 17:39 | 51.90758 | 1.90394 | 27800 ft | 492 kts | 227° |
| 2026-05-05 17:39 | 51.88490 | 1.86235 | 27316 ft | 492 kts | 228° |
| 2026-05-05 17:39 | 51.86356 | 1.82329 | 27015 ft | 489 kts | 228° |
| 2026-05-05 17:39 | 51.84125 | 1.78249 | 26790 ft | 488 kts | 228° |
| 2026-05-05 17:40 | 51.81903 | 1.74194 | 26557 ft | 488 kts | 228° |
| 2026-05-05 17:40 | 51.79750 | 1.70271 | 26330 ft | 488 kts | 228° |
| 2026-05-05 17:40 | 51.77523 | 1.66224 | 26093 ft | 487 kts | 228° |
| 2026-05-05 17:40 | 51.75552 | 1.61901 | 25869 ft | 487 kts | 245° |
| 2026-05-05 17:41 | 51.74543 | 1.56720 | 25781 ft | 488 kts | 263° |
| 2026-05-05 17:41 | 51.74177 | 1.51295 | 25664 ft | 489 kts | 264° |
| 2026-05-05 17:41 | 51.73750 | 1.45969 | 25456 ft | 486 kts | 255° |
| 2026-05-05 17:41 | 51.72454 | 1.41005 | 25324 ft | 482 kts | 235° |
| 2026-05-05 17:42 | 51.70237 | 1.37099 | 25261 ft | 482 kts | 216° |
| 2026-05-05 17:42 | 51.67396 | 1.34373 | 25205 ft | 482 kts | 213° |
| 2026-05-05 17:42 | 51.64869 | 1.30891 | 25103 ft | 482 kts | 229° |
| 2026-05-05 17:42 | 51.62746 | 1.26765 | 24990 ft | 476 kts | 231° |
| 2026-05-05 17:43 | 51.60755 | 1.22770 | 24633 ft | 446 kts | 231° |
| 2026-05-05 17:43 | 51.58968 | 1.19201 | 24178 ft | 403 kts | 231° |
| 2026-05-05 17:43 | 51.57307 | 1.15916 | 23582 ft | 366 kts | 231° |
| 2026-05-05 17:43 | 51.55766 | 1.12888 | 23182 ft | 356 kts | 231° |
| 2026-05-05 17:44 | 51.54243 | 1.09806 | 23022 ft | 354 kts | 243° |
| 2026-05-05 17:44 | 51.53476 | 1.06106 | 23159 ft | 354 kts | 270° |
| 2026-05-05 17:44 | 51.53806 | 1.02184 | 23078 ft | 358 kts | 296° |
| 2026-05-05 17:44 | 51.55172 | 0.98889 | 22941 ft | 357 kts | 317° |
| 2026-05-05 17:45 | 51.56948 | 0.96366 | 22744 ft | 357 kts | 321° |
| 2026-05-05 17:45 | 51.58872 | 0.93850 | 22407 ft | 354 kts | 321° |
| 2026-05-05 17:45 | 51.60760 | 0.91405 | 21923 ft | 351 kts | 321° |
| 2026-05-05 17:45 | 51.62657 | 0.88957 | 21534 ft | 346 kts | 321° |
| 2026-05-05 17:46 | 51.64514 | 0.86562 | 21032 ft | 344 kts | 321° |
| 2026-05-05 17:46 | 51.66364 | 0.84173 | 20480 ft | 340 kts | 321° |
| 2026-05-05 17:46 | 51.68177 | 0.81828 | 19942 ft | 338 kts | 321° |
| 2026-05-05 17:46 | 51.69986 | 0.79489 | 19399 ft | 335 kts | 321° |
| 2026-05-05 17:47 | 51.71728 | 0.77234 | 18877 ft | 333 kts | 321° |
| 2026-05-05 17:47 | 51.73515 | 0.74920 | 18318 ft | 331 kts | 321° |
| 2026-05-05 17:47 | 51.75111 | 0.72312 | 17715 ft | 329 kts | 297° |
| 2026-05-05 17:47 | 51.75751 | 0.68845 | 17239 ft | 328 kts | 269° |
| 2026-05-05 17:48 | 51.75295 | 0.65310 | 16795 ft | 329 kts | 245° |
| 2026-05-05 17:48 | 51.74269 | 0.62094 | 16241 ft | 326 kts | 242° |
| 2026-05-05 17:48 | 51.73396 | 0.58789 | 15644 ft | 322 kts | 254° |
| 2026-05-05 17:48 | 51.72736 | 0.55397 | 15039 ft | 319 kts | 253° |
| 2026-05-05 17:49 | 51.72062 | 0.52042 | 14402 ft | 317 kts | 253° |
| 2026-05-05 17:49 | 51.71391 | 0.48705 | 13770 ft | 315 kts | 253° |
| 2026-05-05 17:49 | 51.70751 | 0.45529 | 13196 ft | 312 kts | 253° |
| 2026-05-05 17:49 | 51.70100 | 0.42303 | 12600 ft | 307 kts | 254° |
| 2026-05-05 17:50 | 51.69441 | 0.39039 | 11972 ft | 305 kts | 254° |
| 2026-05-05 17:50 | 51.68793 | 0.35828 | 11345 ft | 304 kts | 254° |
| 2026-05-05 17:50 | 51.68150 | 0.32648 | 10695 ft | 301 kts | 253° |
| 2026-05-05 17:50 | 51.67523 | 0.29549 | 10090 ft | 295 kts | 253° |
| 2026-05-05 17:51 | 51.66923 | 0.26598 | 9437 ft | 270 kts | 253° |
| 2026-05-05 17:51 | 51.66404 | 0.24038 | 8997 ft | 257 kts | 253° |
| 2026-05-05 17:51 | 51.65871 | 0.21413 | 8919 ft | 255 kts | 253° |
| 2026-05-05 17:51 | 51.65503 | 0.18639 | 9046 ft | 256 kts | 265° |
| 2026-05-05 17:52 | 51.65305 | 0.15784 | 9017 ft | 259 kts | 266° |
| 2026-05-05 17:52 | 51.65120 | 0.12908 | 8995 ft | 258 kts | 266° |
| 2026-05-05 17:52 | 51.64936 | 0.10046 | 9001 ft | 257 kts | 266° |
| 2026-05-05 17:52 | 51.64750 | 0.07182 | 8985 ft | 258 kts | 266° |
| 2026-05-05 17:53 | 51.64563 | 0.04327 | 9002 ft | 258 kts | 266° |
| 2026-05-05 17:53 | 51.64378 | 0.01485 | 9006 ft | 258 kts | 266° |
| 2026-05-05 17:53 | 51.64195 | -0.01325 | 9001 ft | 258 kts | 266° |
| 2026-05-05 17:53 | 51.64019 | -0.04064 | 8999 ft | 257 kts | 266° |
| 2026-05-05 17:54 | 51.63835 | -0.06952 | 9003 ft | 258 kts | 266° |
| 2026-05-05 17:54 | 51.63656 | -0.09804 | 9007 ft | 257 kts | 266° |
| 2026-05-05 17:54 | 51.63483 | -0.12631 | 9005 ft | 257 kts | 266° |
| 2026-05-05 17:54 | 51.63312 | -0.15373 | 8998 ft | 257 kts | 266° |
| 2026-05-05 17:55 | 51.63132 | -0.18254 | 9000 ft | 257 kts | 266° |
| 2026-05-05 17:55 | 51.62949 | -0.21113 | 9007 ft | 257 kts | 266° |
| 2026-05-05 17:55 | 51.62767 | -0.23934 | 9007 ft | 257 kts | 266° |
| 2026-05-05 17:55 | 51.62596 | -0.26591 | 8990 ft | 257 kts | 266° |
| 2026-05-05 17:56 | 51.62413 | -0.29386 | 9004 ft | 258 kts | 266° |
| 2026-05-05 17:56 | 51.62223 | -0.32273 | 9007 ft | 259 kts | 266° |
| 2026-05-05 17:56 | 51.62034 | -0.35138 | 9001 ft | 258 kts | 266° |
| 2026-05-05 17:56 | 51.61845 | -0.38002 | 9003 ft | 258 kts | 266° |
| 2026-05-05 17:57 | 51.61659 | -0.40827 | 8799 ft | 260 kts | 266° |
| 2026-05-05 17:57 | 51.61469 | -0.43712 | 8176 ft | 258 kts | 266° |
| 2026-05-05 17:57 | 51.61282 | -0.46549 | 7928 ft | 254 kts | 266° |
| 2026-05-05 17:57 | 51.61100 | -0.49323 | 8004 ft | 253 kts | 266° |
| 2026-05-05 17:58 | 51.60919 | -0.52115 | 8016 ft | 255 kts | 266° |
| 2026-05-05 17:58 | 51.60736 | -0.54965 | 7996 ft | 254 kts | 266° |
| 2026-05-05 17:58 | 51.60558 | -0.57775 | 8003 ft | 254 kts | 266° |
| 2026-05-05 17:58 | 51.60378 | -0.60576 | 8002 ft | 254 kts | 266° |
| 2026-05-05 17:59 | 51.60194 | -0.63418 | 7998 ft | 254 kts | 266° |
| 2026-05-05 17:59 | 51.60018 | -0.66093 | 8003 ft | 255 kts | 265° |
| 2026-05-05 17:59 | 51.59839 | -0.68788 | 8000 ft | 255 kts | 265° |
| 2026-05-05 17:59 | 51.59647 | -0.71689 | 8010 ft | 254 kts | 265° |
| 2026-05-05 18:00 | 51.59461 | -0.74510 | 7998 ft | 254 kts | 265° |
| 2026-05-05 18:00 | 51.59277 | -0.77301 | 8002 ft | 255 kts | 265° |
| 2026-05-05 18:00 | 51.59092 | -0.80118 | 7742 ft | 257 kts | 265° |
| 2026-05-05 18:00 | 51.58888 | -0.82886 | 7115 ft | 257 kts | 254° |
| 2026-05-05 18:01 | 51.58189 | -0.85418 | 6505 ft | 229 kts | 242° |
| 2026-05-05 18:01 | 51.57424 | -0.87541 | 5787 ft | 216 kts | 240° |
| 2026-05-05 18:01 | 51.56680 | -0.89553 | 5141 ft | 214 kts | 241° |
| 2026-05-05 18:01 | 51.55936 | -0.91543 | 4534 ft | 214 kts | 241° |
| 2026-05-05 18:02 | 51.55184 | -0.93530 | 4042 ft | 212 kts | 240° |
| 2026-05-05 18:02 | 51.54421 | -0.95537 | 4036 ft | 209 kts | 241° |
| 2026-05-05 18:02 | 51.53664 | -0.97524 | 4026 ft | 211 kts | 240° |
| 2026-05-05 18:02 | 51.52720 | -0.99306 | 4036 ft | 214 kts | 203° |
| 2026-05-05 18:03 | 51.51306 | -0.99846 | 4114 ft | 213 kts | 171° |
| 2026-05-05 18:03 | 51.49987 | -0.98979 | 4099 ft | 207 kts | 129° |
| 2026-05-05 18:03 | 51.49103 | -0.97230 | 4057 ft | 204 kts | 120° |
| 2026-05-05 18:03 | 51.48426 | -0.95288 | 4007 ft | 199 kts | 98° |
| 2026-05-05 18:04 | 51.48211 | -0.93180 | 4068 ft | 196 kts | 93° |
| 2026-05-05 18:04 | 51.48067 | -0.91021 | 4017 ft | 198 kts | 92° |
| 2026-05-05 18:04 | 51.47944 | -0.88780 | 4054 ft | 205 kts | 91° |
| 2026-05-05 18:04 | 51.47853 | -0.86578 | 4071 ft | 205 kts | 90° |
| 2026-05-05 18:05 | 51.47784 | -0.84319 | 4087 ft | 205 kts | 89° |
| 2026-05-05 18:05 | 51.47735 | -0.82065 | 4103 ft | 204 kts | 89° |
| 2026-05-05 18:05 | 51.47702 | -0.79850 | 3932 ft | 206 kts | 88° |
| 2026-05-05 18:05 | 51.47681 | -0.77606 | 3663 ft | 203 kts | 87° |
| 2026-05-05 18:06 | 51.47670 | -0.75422 | 3404 ft | 200 kts | 87° |
| 2026-05-05 18:06 | 51.47666 | -0.73954 | 3227 ft | 199 kts | 86° |
| 2026-05-05 18:06 | 51.47667 | -0.71023 | 2866 ft | 198 kts | 86° |
| 2026-05-05 18:06 | 51.47672 | -0.68818 | 2594 ft | 198 kts | 86° |
| 2026-05-05 18:07 | 51.47679 | -0.66671 | 2334 ft | 197 kts | 86° |
| 2026-05-05 18:07 | 51.47688 | -0.64490 | 2067 ft | 195 kts | 86° |
| 2026-05-05 18:07 | 51.47697 | -0.62340 | 1802 ft | 194 kts | 85° |
| 2026-05-05 18:07 | 51.47706 | -0.60210 | 1540 ft | 193 kts | 86° |
| 2026-05-05 18:08 | 51.47718 | -0.58013 | 1292 ft | 205 kts | 86° |
| 2026-05-05 18:08 | 51.47727 | -0.55768 | 1001 ft | 203 kts | 86° |
| 2026-05-05 18:08 | 51.47731 | -0.53506 | 712 ft | 205 kts | 88° |
| 2026-05-05 18:08 | 51.47732 | -0.51218 | 442 ft | 210 kts | 88° |
| 2026-05-05 18:09 | 51.47739 | -0.48881 | 155 ft | 205 kts | 88° |
| 2026-05-05 18:09 | 51.47748 | -0.46854 | 90 ft | 168 kts | 87° |
| 2026-05-05 18:09 | 51.47760 | -0.45685 | 87 ft | 51 kts | 90° |
| 2026-05-05 18:09 | 51.47760 | -0.45346 | 91 ft | 20 kts | 91° |
| 2026-05-05 18:10 | 51.47710 | -0.45186 | 94 ft | 14 kts | 161° |
| 2026-05-05 18:10 | 51.47626 | -0.45176 | 94 ft | 6 kts | 178° |
| 2026-05-05 18:10 | 51.47624 | -0.45176 | 94 ft | 0 kts | 176° |
| 2026-05-05 18:11 | 51.47590 | -0.45176 | 94 ft | 11 kts | 179° |
| 2026-05-05 18:11 | 51.47520 | -0.45135 | 95 ft | 9 kts | 122° |
| 2026-05-05 18:11 | 51.47508 | -0.44989 | 98 ft | 16 kts | 88° |
| 2026-05-05 18:12 | 51.47510 | -0.44821 | 97 ft | 13 kts | 89° |
| 2026-05-05 18:12 | 51.47506 | -0.44663 | 95 ft | 17 kts | 98° |
| 2026-05-05 18:12 | 51.47464 | -0.44570 | 95 ft | 0 kts | 177° |
| 2026-05-05 18:15 | 51.47443 | -0.44568 | 96 ft | 8 kts | 176° |
| 2026-05-05 18:15 | 51.47370 | -0.44559 | 97 ft | 9 kts | 166° |
| 2026-05-05 18:15 | 51.47338 | -0.44496 | 98 ft | 8 kts | 95° |
| 2026-05-05 18:15 | 51.47339 | -0.44426 | 96 ft | 0 kts | 88° |